Maria Noelle — WDD9564 — position and weather

sailwx.info

Track history (hours):
 
Tides and Currents Weather Stations Pressure Air Temp Water Temp Dewpoint Dewpoint Depression Visibility Wind Speed Wind Dir Waves Ship Positions

Maria Noelle

Owner: MUROS INC, POINT PLEASANT, NJ. More information available from US FCC via Universal Licensing System and Coast Guard Vessel Documentation Center.

Last reported at 2014-Dec-17 02:17 UTC. Time now 2014-Dec-19 11:57 UTC.
Position N 40°00' W 073°02'.

Length 26 m.

Type: Fishing. MMSI: 367313170.

Date/timePositionNaut miles runAvg speedWind from/ knotsBaromVisibWave heightAir tempDewpointWater temp
2014-Dec-17 02:17N 40°00' W 073°02'2 2.1
2014-Dec-17 01:32N 40°01' W 073°00'2 2.4
2014-Dec-17 00:33N 40°00' W 073°03'1 0.9
2014-Dec-16 23:34N 40°00' W 073°02'1 0.9
2014-Dec-16 22:33N 40°00' W 073°01'1 0.5
2014-Dec-16 21:25N 40°01' W 073°00'4 4.0
2014-Dec-16 20:29N 40°00' W 073°05'4 4.4
2014-Dec-16 19:32N 40°00' W 073°10'4 4.5
2014-Dec-16 18:34N 40°01' W 073°16'4 4.0
2014-Dec-16 17:32N 40°03' W 073°21'7 6.3
2014-Dec-16 16:30N 40°04' W 073°29'7 7.9
2014-Dec-16 15:33N 40°05' W 073°39'8 8.0
2014-Dec-16 14:33N 40°05' W 073°49'9 8.0
2014-Dec-16 13:29N 40°06' W 074°01'1 1.4
2014-Dec-16 12:29N 40°06' W 074°02'0 0.0
2014-Dec-16 11:32N 40°06' W 074°02'0 0.0
2014-Dec-16 10:32N 40°06' W 074°02'0 0.0
2014-Dec-16 05:33N 40°06' W 074°02'8 7.4
2014-Dec-16 04:27N 40°05' W 073°52'8 8.1
2014-Dec-16 03:27N 40°04' W 073°41'7 8.4
2014-Dec-16 02:33N 40°03' W 073°31'12 8.4
2014-Dec-16 01:07N 40°01' W 073°16'4 5.9
2014-Dec-16 00:31N 40°00' W 073°11'5 4.2
2014-Dec-15 23:20N 40°00' W 073°05'4 4.6
2014-Dec-15 22:34N 40°01' W 073°00'3 2.8
2014-Dec-15 21:33N 40°00' W 073°04'2 1.7
2014-Dec-15 20:31N 40°01' W 073°02'2 2.4
2014-Dec-15 19:31N 40°00' W 073°05'4 3.9
2014-Dec-15 18:33N 40°01' W 072°60'4 2.8
2014-Dec-15 17:07N 39°58' W 073°03'3 5.1
2014-Dec-15 16:31N 39°57' W 072°59'4 3.7
2014-Dec-15 15:33N 39°60' W 073°02'4 3.7
2014-Dec-15 14:33N 40°02' W 073°06'1 1.5
2014-Dec-15 13:33N 40°01' W 073°08'11 3.1
2014-Dec-15 10:06N 40°03' W 073°22'3 5.9
2014-Dec-15 09:32N 40°03' W 073°26'25 8.1
2014-Dec-15 06:26N 40°06' W 073°59'  
Track history (hours):
 
Tides and Currents Weather Stations Pressure Air Temp Water Temp Dewpoint Dewpoint Depression Visibility Wind Speed Wind Dir Waves Ship Positions

Maria Noelle

Owner: MUROS INC, POINT PLEASANT, NJ. More information available from US FCC via Universal Licensing System and Coast Guard Vessel Documentation Center.

Last reported at 2014-Dec-17 02:17 UTC. Time now 2014-Dec-19 11:57 UTC.
Position N 40°00' W 073°02'.

Length 26 m.

Type: Fishing. MMSI: 367313170.

Date/timePositionNaut miles runAvg speedWind from/ knotsBaromVisibWave heightAir tempDewpointWater temp
2014-Dec-17 02:17N 40°00' W 073°02'2 2.1
2014-Dec-17 01:32N 40°01' W 073°00'2 2.4
2014-Dec-17 00:33N 40°00' W 073°03'1 0.9
2014-Dec-16 23:34N 40°00' W 073°02'1 0.9
2014-Dec-16 22:33N 40°00' W 073°01'1 0.5
2014-Dec-16 21:25N 40°01' W 073°00'4 4.0
2014-Dec-16 20:29N 40°00' W 073°05'4 4.4
2014-Dec-16 19:32N 40°00' W 073°10'4 4.5
2014-Dec-16 18:34N 40°01' W 073°16'4 4.0
2014-Dec-16 17:32N 40°03' W 073°21'7 6.3
2014-Dec-16 16:30N 40°04' W 073°29'7 7.9
2014-Dec-16 15:33N 40°05' W 073°39'8 8.0
2014-Dec-16 14:33N 40°05' W 073°49'9 8.0
2014-Dec-16 13:29N 40°06' W 074°01'1 1.4
2014-Dec-16 12:29N 40°06' W 074°02'0 0.0
2014-Dec-16 11:32N 40°06' W 074°02'0 0.0
2014-Dec-16 10:32N 40°06' W 074°02'0 0.0
2014-Dec-16 05:33N 40°06' W 074°02'8 7.4
2014-Dec-16 04:27N 40°05' W 073°52'8 8.1
2014-Dec-16 03:27N 40°04' W 073°41'7 8.4
2014-Dec-16 02:33N 40°03' W 073°31'12 8.4
2014-Dec-16 01:07N 40°01' W 073°16'4 5.9
2014-Dec-16 00:31N 40°00' W 073°11'5 4.2
2014-Dec-15 23:20N 40°00' W 073°05'4 4.6
2014-Dec-15 22:34N 40°01' W 073°00'3 2.8
2014-Dec-15 21:33N 40°00' W 073°04'2 1.7
2014-Dec-15 20:31N 40°01' W 073°02'2 2.4
2014-Dec-15 19:31N 40°00' W 073°05'4 3.9
2014-Dec-15 18:33N 40°01' W 072°60'4 2.8
2014-Dec-15 17:07N 39°58' W 073°03'3 5.1
2014-Dec-15 16:31N 39°57' W 072°59'4 3.7
2014-Dec-15 15:33N 39°60' W 073°02'4 3.7
2014-Dec-15 14:33N 40°02' W 073°06'1 1.5
2014-Dec-15 13:33N 40°01' W 073°08'11 3.1
2014-Dec-15 10:06N 40°03' W 073°22'3 5.9
2014-Dec-15 09:32N 40°03' W 073°26'25 8.1
2014-Dec-15 06:26N 40°06' W 073°59'  

Dump ship's entire track history